NCAR-RAP Real-Time Weather Data

Output produced by METARs form (08 May 2021  17:20 UTC)
found at http://weather.rap.ucar.edu/surface/
 
KCDR 081653Z AUTO 00000KT 9SM OVC029 13/07 A2975 RMK AO2 PRESRR SLP067 T01280072
KCDR 081553Z AUTO 00000KT 10SM OVC020 12/06 A2974 RMK AO2 SLP061 T01220061
KCDR 081453Z AUTO 13007KT 10SM OVC020 12/07 A2972 RMK AO2 SLP052 T01220067 53007
KCDR 081353Z AUTO 10007KT 10SM OVC020 11/06 A2971 RMK AO2 SLP050 T01110056
KCDR 081253Z AUTO 07010KT 10SM OVC021 11/04 A2970 RMK AO2 SLP044 T01060044
KCDR 081153Z AUTO 13008KT 10SM OVC024 12/06 A2969 RMK AO2 SLP039 T01170056 10156 20111 50009
KCDR 081053Z AUTO 08003KT 10SM OVC026 11/04 A2971 RMK AO2 SLP046 T01110044
KCDR 080953Z AUTO 13010KT 10SM BKN029 13/05 A2968 RMK AO2 SLP033 T01280050
KCDR 080853Z AUTO 12010G14KT 10SM OVC034 13/05 A2966 RMK AO2 PK WND 12027/0758 SLP027 T01330050 56023
KCDR 080753Z AUTO 13016G23KT 10SM CLR 14/06 A2969 RMK AO2 SLP035 T01390056
KCDR 080653Z AUTO 14021G33KT 10SM FEW080 16/06 A2969 RMK AO2 PK WND 13038/0641 SLP035 T01560061 402560006
KCDR 080553Z AUTO 13012KT 10SM CLR 16/06 A2974 RMK AO2 SLP054 T01560061 10244 20156 58008
KCDR 080453Z AUTO VRB04G17KT 10SM CLR 17/06 A2974 RMK AO2 SLP056 T01720061
KCDR 080353Z AUTO 10008G17KT 10SM CLR 18/06 A2976 RMK AO2 SLP064 T01830061